createdAt,value
2022-10-04T00:01:48.347Z,85.35
2022-10-04T00:04:30.865Z,85.35
2022-10-04T00:07:04.341Z,85.35
2022-10-04T00:09:49.143Z,85.39
2022-10-04T00:12:25.542Z,85.39
2022-10-04T00:14:58.993Z,85.35
2022-10-04T00:17:34.290Z,85.15
2022-10-04T00:20:07.597Z,85.02
2022-10-04T00:22:37.936Z,85.07
2022-10-04T00:25:13.108Z,84.98
2022-10-04T00:27:46.893Z,84.83
2022-10-04T00:30:23.545Z,84.78
2022-10-04T00:33:05.048Z,84.75
2022-10-04T00:35:38.682Z,84.59
2022-10-04T00:38:21.012Z,84.73
2022-10-04T00:40:58.719Z,84.81
2022-10-04T00:43:44.641Z,84.76
2022-10-04T00:46:21.068Z,84.80
2022-10-04T00:48:54.711Z,84.74
2022-10-04T00:51:28.125Z,84.71
2022-10-04T00:54:25.842Z,84.44
2022-10-04T00:57:05.146Z,84.47
2022-10-04T00:59:41.240Z,84.32
2022-10-04T01:02:30.146Z,84.13
2022-10-04T01:05:06.659Z,84.19
2022-10-04T01:07:49.126Z,84.22
2022-10-04T01:10:22.579Z,84.18
2022-10-04T01:12:55.974Z,84.20
2022-10-04T01:15:38.625Z,84.31
2022-10-04T01:18:18.050Z,84.29
2022-10-04T01:20:52.968Z,84.42
2022-10-04T01:23:37.861Z,84.79
2022-10-04T01:26:11.359Z,84.65
2022-10-04T01:28:45.007Z,84.80
2022-10-04T01:31:16.978Z,84.99
2022-10-04T01:33:48.007Z,84.92
2022-10-04T01:36:18.660Z,84.94
2022-10-04T01:38:49.703Z,84.99
2022-10-04T01:41:24.053Z,85.04
2022-10-04T01:43:57.770Z,84.91
2022-10-04T01:46:31.203Z,84.89
2022-10-04T01:49:09.713Z,85.07
2022-10-04T01:51:53.367Z,84.84
2022-10-04T01:54:32.572Z,84.76
2022-10-04T01:57:08.779Z,84.49
2022-10-04T01:59:44.985Z,84.24
2022-10-04T02:02:36.856Z,84.38
2022-10-04T02:05:10.360Z,84.50
2022-10-04T02:07:42.686Z,84.66
2022-10-04T02:10:16.126Z,84.71
2022-10-04T02:12:52.950Z,84.85
2022-10-04T02:15:28.301Z,84.99
2022-10-04T02:18:00.239Z,84.94
2022-10-04T02:20:30.881Z,84.94
2022-10-04T02:23:03.775Z,84.80
2022-10-04T02:25:35.765Z,84.45
2022-10-04T02:28:08.594Z,84.47
2022-10-04T02:30:41.529Z,84.15
2022-10-04T02:33:12.543Z,84.10
2022-10-04T02:35:48.253Z,83.86
2022-10-04T02:38:27.874Z,83.80
2022-10-04T02:41:20.622Z,83.79
2022-10-04T02:43:56.798Z,83.60
2022-10-04T02:46:30.280Z,83.15
2022-10-04T02:49:04.170Z,83.65
2022-10-04T02:51:40.637Z,84.32
2022-10-04T02:54:25.029Z,84.86
2022-10-04T02:56:57.899Z,85.15
2022-10-04T02:59:34.610Z,85.56
2022-10-04T03:02:03.416Z,85.68
2022-10-04T03:04:37.277Z,85.89
2022-10-04T03:07:09.291Z,86.08
2022-10-04T03:09:41.221Z,86.31
2022-10-04T03:12:13.682Z,86.60
2022-10-04T03:14:45.482Z,86.70
2022-10-04T03:17:17.615Z,86.84
2022-10-04T03:19:50.293Z,87.10
2022-10-04T03:22:20.919Z,87.19
2022-10-04T03:24:54.723Z,87.23
2022-10-04T03:27:30.833Z,87.43
2022-10-04T03:30:02.014Z,87.48
2022-10-04T03:32:33.030Z,87.49
2022-10-04T03:35:07.540Z,87.72
2022-10-04T03:37:39.273Z,87.65
2022-10-04T03:40:13.130Z,87.77
2022-10-04T03:42:47.276Z,87.87
2022-10-04T03:45:20.669Z,87.67
2022-10-04T03:47:53.226Z,87.82
2022-10-04T03:50:26.508Z,87.94
2022-10-04T03:53:00.116Z,88.00
2022-10-04T03:55:36.643Z,87.90
2022-10-04T03:58:08.312Z,87.92
2022-10-04T04:00:47.625Z,87.76
2022-10-04T04:03:21.253Z,87.56
2022-10-04T04:05:54.978Z,87.26
2022-10-04T04:08:36.706Z,87.18
2022-10-04T04:11:11.293Z,86.96
2022-10-04T04:13:51.987Z,86.69
2022-10-04T04:16:28.355Z,86.52
2022-10-04T04:19:02.309Z,86.33
2022-10-04T04:21:33.861Z,86.28
2022-10-04T04:24:09.103Z,86.24
2022-10-04T04:26:48.485Z,86.49
2022-10-04T04:29:34.155Z,86.76
2022-10-04T04:32:24.723Z,86.82
2022-10-04T04:35:10.222Z,87.01
2022-10-04T04:37:40.576Z,87.05
2022-10-04T04:40:22.601Z,86.96
2022-10-04T04:42:53.939Z,87.09
2022-10-04T04:45:28.438Z,87.13
2022-10-04T04:48:01.235Z,87.20
2022-10-04T04:50:34.367Z,87.32
2022-10-04T04:53:19.115Z,87.47
2022-10-04T04:56:11.040Z,87.50
2022-10-04T04:58:33.114Z,87.42
2022-10-04T05:01:09.202Z,87.52
2022-10-04T05:03:39.988Z,87.48
2022-10-04T05:06:28.245Z,87.38
2022-10-04T05:08:58.711Z,87.52
2022-10-04T05:11:38.493Z,87.64
2022-10-04T05:14:13.366Z,87.59
2022-10-04T05:16:49.636Z,87.38
2022-10-04T05:19:30.537Z,87.17
2022-10-04T05:22:15.529Z,86.79
2022-10-04T05:24:48.638Z,86.38
2022-10-04T05:27:38.879Z,86.26
2022-10-04T05:30:33.525Z,85.72
2022-10-04T05:33:09.499Z,85.31
2022-10-04T05:35:48.460Z,85.06
2022-10-04T05:38:22.460Z,84.88
2022-10-04T05:41:21.705Z,84.79
2022-10-04T05:43:52.849Z,84.49
2022-10-04T05:46:26.438Z,84.48
2022-10-04T05:49:08.922Z,84.42
2022-10-04T05:51:59.118Z,84.50
2022-10-04T05:54:32.808Z,84.34
2022-10-04T05:57:21.133Z,84.29
2022-10-04T06:00:12.906Z,84.11
2022-10-04T06:03:12.438Z,84.28
2022-10-04T06:05:57.656Z,84.01
2022-10-04T06:08:55.726Z,83.93
2022-10-04T06:11:47.512Z,83.78
2022-10-04T06:14:38.864Z,83.49
2022-10-04T06:17:39.414Z,83.89
2022-10-04T06:20:12.928Z,83.76
2022-10-04T06:22:48.868Z,83.68
2022-10-04T06:25:28.761Z,82.82
2022-10-04T06:28:20.398Z,82.72
2022-10-04T06:30:54.108Z,82.49
2022-10-04T06:33:45.749Z,82.25
2022-10-04T06:36:31.087Z,82.28
2022-10-04T06:39:24.091Z,82.05
2022-10-04T06:42:32.565Z,81.78
2022-10-04T06:45:29.008Z,82.10
2022-10-04T06:48:03.233Z,82.04
2022-10-04T06:50:51.767Z,81.69
2022-10-04T06:53:28.245Z,81.84
2022-10-04T06:56:07.717Z,81.94
2022-10-04T06:58:43.826Z,81.97
2022-10-04T07:01:35.364Z,81.73
2022-10-04T07:04:50.199Z,81.77
2022-10-04T07:07:30.802Z,82.19
2022-10-04T07:10:16.666Z,82.09
2022-10-04T07:12:50.248Z,82.08
2022-10-04T07:15:26.926Z,81.54
2022-10-04T07:18:00.608Z,81.46
2022-10-04T07:20:34.114Z,81.33
2022-10-04T07:23:07.946Z,81.33
2022-10-04T07:25:47.027Z,80.69
2022-10-04T07:28:38.400Z,80.73
2022-10-04T07:31:25.812Z,81.22
2022-10-04T07:34:02.659Z,80.87
2022-10-04T07:36:42.086Z,80.78
2022-10-04T07:39:24.894Z,80.79
2022-10-04T07:42:15.233Z,80.97
2022-10-04T07:44:48.836Z,81.41
2022-10-04T07:47:27.860Z,81.53
2022-10-04T07:49:58.613Z,80.95
2022-10-04T07:52:50.750Z,80.86
2022-10-04T07:55:42.830Z,80.93
2022-10-04T07:58:25.230Z,80.70
2022-10-04T08:01:01.657Z,80.70
2022-10-04T08:03:56.126Z,80.53
2022-10-04T08:06:35.366Z,80.76
2022-10-04T08:09:24.404Z,80.71
2022-10-04T08:12:14.385Z,80.97
2022-10-04T08:14:59.797Z,80.72
2022-10-04T08:17:36.296Z,80.40
2022-10-04T08:20:27.659Z,78.78
2022-10-04T08:23:16.197Z,77.89
2022-10-04T08:25:55.310Z,77.65
2022-10-04T08:28:58.402Z,77.92
2022-10-04T08:31:48.338Z,77.91
2022-10-04T08:34:21.784Z,78.09
2022-10-04T08:36:59.791Z,77.97
2022-10-04T08:39:48.198Z,77.82
2022-10-04T08:42:55.545Z,77.22
2022-10-04T08:45:54.692Z,76.38
2022-10-04T08:48:34.481Z,74.91
2022-10-04T08:51:38.204Z,74.28
2022-10-04T08:54:36.074Z,73.05
2022-10-04T08:57:26.057Z,73.22
2022-10-04T09:00:15.619Z,73.41
2022-10-04T09:02:54.991Z,73.34
2022-10-04T09:06:00.316Z,73.40
2022-10-04T09:08:58.777Z,73.11
2022-10-04T09:11:44.535Z,72.00
2022-10-04T09:14:30.771Z,71.55
2022-10-04T09:17:22.250Z,70.02
2022-10-04T09:20:37.188Z,70.85
2022-10-04T09:23:06.253Z,70.48
2022-10-04T09:25:45.820Z,70.38
2022-10-04T09:28:39.097Z,70.62
2022-10-04T09:31:21.903Z,69.81
2022-10-04T09:34:12.286Z,70.59
2022-10-04T09:36:54.711Z,70.89
2022-10-04T09:39:48.822Z,70.76
2022-10-04T09:42:47.969Z,71.49
2022-10-04T09:45:25.228Z,71.79
2022-10-04T09:48:16.430Z,70.55
2022-10-04T09:51:11.018Z,70.51
2022-10-04T09:53:53.301Z,70.00
2022-10-04T09:56:54.155Z,69.26
2022-10-04T09:59:45.761Z,68.33
2022-10-04T10:02:20.170Z,67.80
2022-10-04T10:05:05.532Z,68.22
2022-10-04T10:07:44.922Z,68.83
2022-10-04T10:10:56.972Z,69.56
2022-10-04T10:13:45.518Z,70.03
2022-10-04T10:16:21.918Z,67.72
2022-10-04T10:19:17.908Z,67.11
2022-10-04T10:22:05.818Z,67.67
2022-10-04T10:24:43.816Z,67.76
2022-10-04T10:27:39.954Z,67.91
2022-10-04T10:30:25.835Z,67.71
2022-10-04T10:33:20.518Z,67.93
2022-10-04T10:36:19.768Z,67.58
2022-10-04T10:39:23.780Z,67.38
2022-10-04T10:42:13.722Z,68.48
2022-10-04T10:44:59.131Z,68.11
2022-10-04T10:47:52.348Z,68.02
2022-10-04T10:50:59.792Z,68.28
2022-10-04T10:53:50.014Z,68.59
2022-10-04T10:56:46.343Z,67.76
2022-10-04T10:59:55.062Z,67.34
2022-10-04T11:02:49.429Z,67.22
2022-10-04T11:05:41.568Z,66.97
2022-10-04T11:08:30.553Z,67.38
2022-10-04T11:11:22.498Z,66.87
2022-10-04T11:14:12.412Z,67.64
2022-10-04T11:16:57.870Z,68.21
2022-10-04T11:19:53.800Z,68.46
2022-10-04T11:23:02.221Z,68.44
2022-10-04T11:25:50.613Z,69.20
2022-10-04T11:28:52.957Z,69.85
2022-10-04T11:31:58.176Z,69.51
2022-10-04T11:35:06.865Z,68.94
2022-10-04T11:37:53.618Z,65.92
2022-10-04T11:40:56.724Z,64.35
2022-10-04T11:43:46.534Z,64.44
2022-10-04T11:46:41.389Z,65.18
2022-10-04T11:49:36.297Z,67.41
2022-10-04T11:52:18.230Z,68.78
2022-10-04T11:55:21.174Z,67.92
2022-10-04T11:58:19.076Z,68.25
2022-10-04T12:01:10.740Z,68.24
2022-10-04T12:04:03.191Z,67.65
2022-10-04T12:07:10.345Z,65.70
2022-10-04T12:09:46.569Z,64.37
2022-10-04T12:12:49.850Z,63.07
2022-10-04T12:15:40.874Z,62.27
2022-10-04T12:18:35.720Z,62.83
2022-10-04T12:21:30.310Z,63.61
2022-10-04T12:24:22.003Z,63.91
2022-10-04T12:27:12.136Z,63.44
2022-10-04T12:30:02.867Z,62.78
2022-10-04T12:33:08.504Z,62.17
2022-10-04T12:35:47.973Z,61.56
2022-10-04T12:38:37.895Z,61.23
2022-10-04T12:41:30.780Z,61.37
2022-10-04T12:44:33.235Z,60.59
2022-10-04T12:47:35.743Z,61.58
2022-10-04T12:50:09.463Z,61.65
2022-10-04T12:52:57.789Z,61.00
2022-10-04T12:55:49.566Z,61.18
2022-10-04T12:58:55.887Z,62.05
2022-10-04T13:01:40.380Z,62.10
2022-10-04T13:04:29.200Z,62.03
2022-10-04T13:07:18.455Z,60.22
2022-10-04T13:10:25.078Z,61.74
2022-10-04T13:13:20.015Z,62.00
2022-10-04T13:19:09.793Z,63.33
2022-10-04T13:21:46.062Z,62.42
2022-10-04T13:24:31.959Z,61.67
2022-10-04T13:27:08.255Z,62.41
2022-10-04T13:29:56.222Z,63.47
2022-10-04T13:32:32.332Z,64.19
2022-10-04T13:35:08.862Z,64.64
2022-10-04T13:38:03.206Z,65.43
2022-10-04T13:40:54.592Z,63.44
2022-10-04T13:43:36.819Z,63.34
2022-10-04T13:46:19.923Z,63.13
2022-10-04T13:49:07.030Z,62.56
2022-10-04T13:51:46.866Z,62.41
2022-10-04T13:54:53.378Z,61.98
2022-10-04T13:57:32.461Z,62.85
2022-10-04T14:00:14.111Z,62.81
2022-10-04T14:02:59.499Z,62.37
2022-10-04T14:05:49.692Z,62.94
2022-10-04T14:08:39.740Z,62.48
2022-10-04T14:11:41.770Z,62.38
2022-10-04T14:14:30.409Z,63.05
2022-10-04T14:17:15.625Z,63.69
2022-10-04T14:19:53.562Z,63.03
2022-10-04T14:22:33.315Z,63.25
2022-10-04T14:25:30.934Z,63.21
2022-10-04T14:28:38.006Z,62.32
2022-10-04T14:31:37.169Z,63.73
2022-10-04T14:34:44.200Z,63.51
2022-10-04T14:37:45.076Z,63.95
2022-10-04T14:40:36.590Z,64.01
2022-10-04T14:43:15.537Z,64.74
2022-10-04T14:45:54.615Z,64.08
2022-10-04T14:48:57.068Z,64.65
2022-10-04T14:51:39.494Z,65.37
2022-10-04T14:54:19.985Z,64.64
2022-10-04T14:57:12.822Z,65.17
2022-10-04T15:00:06.857Z,64.95
2022-10-04T15:03:05.456Z,65.07
2022-10-04T15:05:44.310Z,65.20
2022-10-04T15:08:26.792Z,65.15
2022-10-04T15:11:06.038Z,65.78
2022-10-04T15:13:56.735Z,65.82
2022-10-04T15:16:47.579Z,65.89
2022-10-04T15:19:47.350Z,65.68
2022-10-04T15:22:27.398Z,65.89
2022-10-04T15:24:59.445Z,65.86
2022-10-04T15:27:35.671Z,66.05
2022-10-04T15:30:24.390Z,66.12
2022-10-04T15:33:11.530Z,66.19
2022-10-04T15:36:00.096Z,66.48
2022-10-04T15:38:42.152Z,66.28
2022-10-04T15:41:40.054Z,66.67
2022-10-04T15:44:15.201Z,66.54
2022-10-04T15:47:10.035Z,67.12
2022-10-04T15:49:52.569Z,66.98
2022-10-04T15:52:59.232Z,67.67
2022-10-04T15:55:33.888Z,67.48
2022-10-04T15:58:22.143Z,67.82
2022-10-04T16:00:58.536Z,68.10
2022-10-04T16:03:45.051Z,67.90
2022-10-04T16:06:30.901Z,68.49
2022-10-04T16:09:16.260Z,68.83
2022-10-04T16:12:01.439Z,69.02
2022-10-04T16:14:42.012Z,69.32
2022-10-04T16:17:24.653Z,69.25
2022-10-04T16:19:59.866Z,69.74
2022-10-04T16:22:32.932Z,69.50
2022-10-04T16:25:21.773Z,70.25
2022-10-04T16:28:05.576Z,70.55
2022-10-04T16:30:50.180Z,70.84
2022-10-04T16:33:33.138Z,71.29
2022-10-04T16:36:07.291Z,72.08
2022-10-04T16:39:07.730Z,72.20
2022-10-04T16:41:44.494Z,72.72
2022-10-04T16:44:37.714Z,72.61
2022-10-04T16:47:20.183Z,73.21
2022-10-04T16:49:57.139Z,72.90
2022-10-04T16:52:53.267Z,74.37
2022-10-04T16:55:29.393Z,74.74
2022-10-04T16:58:30.580Z,75.46
2022-10-04T17:01:34.001Z,74.41
2022-10-04T17:04:26.457Z,75.86
2022-10-04T17:07:02.777Z,73.84
2022-10-04T17:09:58.900Z,74.75
2022-10-04T17:12:48.738Z,74.09
2022-10-04T17:15:28.469Z,73.66
2022-10-04T17:18:06.199Z,74.73
2022-10-04T17:20:45.853Z,75.34
2022-10-04T17:23:21.945Z,74.09
2022-10-04T17:26:10.422Z,73.84
2022-10-04T17:29:00.978Z,73.46
2022-10-04T17:31:34.487Z,73.64
2022-10-04T17:34:20.561Z,73.45
2022-10-04T17:36:54.961Z,73.56
2022-10-04T17:39:28.501Z,73.87
2022-10-04T17:42:20.151Z,74.93
2022-10-04T17:45:12.870Z,75.45
2022-10-04T17:48:10.293Z,75.08
2022-10-04T17:51:18.476Z,75.77
2022-10-04T17:54:10.736Z,75.74
2022-10-04T17:56:44.585Z,77.27
2022-10-04T17:59:30.859Z,77.19
2022-10-04T18:02:13.984Z,77.00
2022-10-04T18:04:50.395Z,77.15
2022-10-04T18:07:26.891Z,75.90
2022-10-04T18:10:00.315Z,75.87
2022-10-04T18:12:36.404Z,75.86
2022-10-04T18:15:39.739Z,77.12
2022-10-04T18:18:21.611Z,76.47
2022-10-04T18:21:02.387Z,76.78
2022-10-04T18:23:36.151Z,77.09
2022-10-04T18:26:18.520Z,75.85
2022-10-04T18:28:52.410Z,76.31
2022-10-04T18:31:35.120Z,77.12
2022-10-04T18:34:17.770Z,77.14
2022-10-04T18:37:05.814Z,76.44
2022-10-04T18:39:51.728Z,76.10
2022-10-04T18:42:23.412Z,76.19
2022-10-04T18:45:06.117Z,76.19
2022-10-04T18:47:41.327Z,75.96
2022-10-04T18:50:31.965Z,75.83
2022-10-04T18:53:06.996Z,75.69
2022-10-04T18:55:55.362Z,76.62
2022-10-04T18:59:14.367Z,76.32
2022-10-04T19:02:04.631Z,77.34
2022-10-04T19:04:45.626Z,76.21
2022-10-04T19:07:28.347Z,77.46
2022-10-04T19:10:13.837Z,75.72
2022-10-04T19:13:05.444Z,76.35
2022-10-04T19:15:44.164Z,76.17
2022-10-04T19:18:29.865Z,76.38
2022-10-04T19:21:03.320Z,76.53
2022-10-04T19:23:42.592Z,76.75
2022-10-04T19:26:32.233Z,77.49
2022-10-04T19:29:05.881Z,76.68
2022-10-04T19:31:42.520Z,77.15
2022-10-04T19:34:19.579Z,77.09
2022-10-04T19:36:55.739Z,76.81
2022-10-04T19:39:35.151Z,77.27
2022-10-04T19:42:17.199Z,76.66
2022-10-04T19:44:59.376Z,76.48
2022-10-04T19:47:44.738Z,76.64
2022-10-04T19:50:33.396Z,76.99
2022-10-04T19:53:10.144Z,77.37
2022-10-04T19:55:56.053Z,77.91
2022-10-04T19:58:47.031Z,78.10
2022-10-04T20:01:23.919Z,77.75
2022-10-04T20:04:12.422Z,78.36
2022-10-04T20:06:54.707Z,78.11
2022-10-04T20:09:41.733Z,78.30
2022-10-04T20:12:44.957Z,78.99
2022-10-04T20:15:27.729Z,78.95
2022-10-04T20:17:58.051Z,78.20
2022-10-04T20:20:43.768Z,78.10
2022-10-04T20:23:17.277Z,78.70
2022-10-04T20:25:50.686Z,78.82
2022-10-04T20:28:32.951Z,78.70
2022-10-04T20:31:06.666Z,78.78
2022-10-04T20:33:48.893Z,78.75
2022-10-04T20:36:31.327Z,78.82
2022-10-04T20:39:03.638Z,78.70
2022-10-04T20:41:55.071Z,78.98
2022-10-04T20:44:43.563Z,78.99
2022-10-04T20:47:29.071Z,79.33
2022-10-04T20:50:01.559Z,79.44
2022-10-04T20:52:34.538Z,79.22
2022-10-04T20:55:12.147Z,79.34
2022-10-04T20:57:42.477Z,79.34
2022-10-04T21:00:20.969Z,79.41
2022-10-04T21:02:51.466Z,79.42
2022-10-04T21:05:27.200Z,79.43
2022-10-04T21:08:25.117Z,79.40
2022-10-04T21:11:18.489Z,79.44
2022-10-04T21:13:52.045Z,79.30
2022-10-04T21:16:36.781Z,79.64
2022-10-04T21:19:36.268Z,79.34
2022-10-04T21:22:18.841Z,79.78
2022-10-04T21:24:57.809Z,80.03
2022-10-04T21:27:33.846Z,79.86
2022-10-04T21:30:15.431Z,79.55
2022-10-04T21:32:46.395Z,79.17
2022-10-04T21:35:16.778Z,78.63
2022-10-04T21:37:47.429Z,78.82
2022-10-04T21:40:17.856Z,78.76
2022-10-04T21:42:48.235Z,78.48
2022-10-04T21:45:18.608Z,78.55
2022-10-04T21:47:48.940Z,78.78
2022-10-04T21:50:19.341Z,78.78
2022-10-04T21:52:49.738Z,78.56
2022-10-04T21:55:20.107Z,78.77
2022-10-04T21:57:50.431Z,78.63
2022-10-04T22:00:21.224Z,78.55
2022-10-04T22:02:51.703Z,78.57
2022-10-04T22:05:22.130Z,78.55
2022-10-04T22:07:52.506Z,78.51
2022-10-04T22:10:23.017Z,78.54
2022-10-04T22:12:55.117Z,78.62
2022-10-04T22:15:27.047Z,78.17
2022-10-04T22:17:58.001Z,77.90
2022-10-04T22:20:29.077Z,78.26
2022-10-04T22:23:00.053Z,78.37
2022-10-04T22:25:30.450Z,78.35
2022-10-04T22:28:01.224Z,78.11
2022-10-04T22:30:31.745Z,78.20
2022-10-04T22:33:02.760Z,78.24
2022-10-04T22:35:34.701Z,77.69
2022-10-04T22:38:08.224Z,78.25
2022-10-04T22:40:38.720Z,78.41
2022-10-04T22:43:12.142Z,78.36
2022-10-04T22:45:44.249Z,78.42
2022-10-04T22:48:16.245Z,78.38
2022-10-04T22:50:46.743Z,78.27
2022-10-04T22:53:22.641Z,78.11
2022-10-04T22:55:55.226Z,78.06
2022-10-04T22:58:27.562Z,78.36
2022-10-04T23:00:58.056Z,78.53
2022-10-04T23:03:31.531Z,78.17
2022-10-04T23:06:03.869Z,78.28
2022-10-04T23:08:34.302Z,78.21
2022-10-04T23:11:04.856Z,77.99
2022-10-04T23:13:35.514Z,78.23
2022-10-04T23:16:20.842Z,78.16
2022-10-04T23:18:53.371Z,78.26
2022-10-04T23:21:26.892Z,78.66
2022-10-04T23:24:00.344Z,78.81
2022-10-04T23:26:33.701Z,78.76
2022-10-04T23:29:09.753Z,78.77
2022-10-04T23:31:40.189Z,78.81
2022-10-04T23:34:19.862Z,79.06
2022-10-04T23:36:50.532Z,78.73
2022-10-04T23:39:33.685Z,78.93
2022-10-04T23:42:07.161Z,79.00
2022-10-04T23:44:38.873Z,79.29
2022-10-04T23:47:20.311Z,79.19
2022-10-04T23:49:53.116Z,79.38
2022-10-04T23:52:26.806Z,79.26
2022-10-04T23:54:57.196Z,79.14
2022-10-04T23:57:30.999Z,79.26
